sensor_id;sensor_type;location;lat;lon;timestamp;P1;durP1;ratioP1;P2;durP2;ratioP2
59093;SDS011;44880;52.814;18.270;2023-03-07T00:00:20;56.30;;;27.40;;
59093;SDS011;44880;52.814;18.270;2023-03-07T00:03:09;61.70;;;26.80;;
59093;SDS011;44880;52.814;18.270;2023-03-07T00:05:40;59.70;;;26.50;;
59093;SDS011;44880;52.814;18.270;2023-03-07T00:08:09;57.90;;;27.40;;
59093;SDS011;44880;52.814;18.270;2023-03-07T00:10:38;62.30;;;27.30;;
59093;SDS011;44880;52.814;18.270;2023-03-07T00:13:07;60.00;;;25.90;;
59093;SDS011;44880;52.814;18.270;2023-03-07T00:15:37;57.80;;;25.50;;
59093;SDS011;44880;52.814;18.270;2023-03-07T00:18:07;59.50;;;26.70;;
59093;SDS011;44880;52.814;18.270;2023-03-07T00:20:35;78.00;;;30.60;;
59093;SDS011;44880;52.814;18.270;2023-03-07T00:23:04;85.00;;;34.40;;
59093;SDS011;44880;52.814;18.270;2023-03-07T00:25:34;91.70;;;37.60;;
59093;SDS011;44880;52.814;18.270;2023-03-07T00:28:03;84.90;;;36.80;;
59093;SDS011;44880;52.814;18.270;2023-03-07T00:30:32;83.50;;;35.60;;
59093;SDS011;44880;52.814;18.270;2023-03-07T00:33:01;60.70;;;28.80;;
59093;SDS011;44880;52.814;18.270;2023-03-07T00:35:30;57.00;;;25.70;;
59093;SDS011;44880;52.814;18.270;2023-03-07T00:37:59;51.40;;;24.60;;
59093;SDS011;44880;52.814;18.270;2023-03-07T00:40:28;55.10;;;25.90;;
59093;SDS011;44880;52.814;18.270;2023-03-07T00:42:57;56.70;;;25.70;;
59093;SDS011;44880;52.814;18.270;2023-03-07T00:45:26;53.80;;;24.60;;
59093;SDS011;44880;52.814;18.270;2023-03-07T00:47:55;53.00;;;24.90;;
59093;SDS011;44880;52.814;18.270;2023-03-07T00:50:23;54.70;;;25.90;;
59093;SDS011;44880;52.814;18.270;2023-03-07T00:52:52;56.30;;;26.60;;
59093;SDS011;44880;52.814;18.270;2023-03-07T00:55:21;58.40;;;28.20;;
59093;SDS011;44880;52.814;18.270;2023-03-07T00:57:50;56.70;;;26.00;;
59093;SDS011;44880;52.814;18.270;2023-03-07T01:00:19;52.60;;;25.20;;
59093;SDS011;44880;52.814;18.270;2023-03-07T01:02:50;56.00;;;26.50;;
59093;SDS011;44880;52.814;18.270;2023-03-07T01:05:19;54.70;;;26.80;;
59093;SDS011;44880;52.814;18.270;2023-03-07T01:07:48;73.50;;;33.20;;
59093;SDS011;44880;52.814;18.270;2023-03-07T01:10:17;87.60;;;37.30;;
59093;SDS011;44880;52.814;18.270;2023-03-07T01:12:46;96.50;;;41.70;;
59093;SDS011;44880;52.814;18.270;2023-03-07T01:15:15;96.30;;;43.90;;
59093;SDS011;44880;52.814;18.270;2023-03-07T01:17:44;88.50;;;42.70;;
59093;SDS011;44880;52.814;18.270;2023-03-07T01:20:13;82.90;;;40.30;;
59093;SDS011;44880;52.814;18.270;2023-03-07T01:22:42;74.30;;;35.20;;
59093;SDS011;44880;52.814;18.270;2023-03-07T01:25:12;66.40;;;31.70;;
59093;SDS011;44880;52.814;18.270;2023-03-07T01:27:41;61.70;;;29.70;;
59093;SDS011;44880;52.814;18.270;2023-03-07T01:30:10;55.50;;;27.40;;
59093;SDS011;44880;52.814;18.270;2023-03-07T01:32:40;54.90;;;26.50;;
59093;SDS011;44880;52.814;18.270;2023-03-07T01:35:09;53.10;;;26.70;;
59093;SDS011;44880;52.814;18.270;2023-03-07T01:37:38;57.80;;;28.20;;
59093;SDS011;44880;52.814;18.270;2023-03-07T01:40:10;52.50;;;26.90;;
59093;SDS011;44880;52.814;18.270;2023-03-07T01:42:40;49.60;;;24.70;;
59093;SDS011;44880;52.814;18.270;2023-03-07T01:48:09;52.20;;;25.10;;
59093;SDS011;44880;52.814;18.270;2023-03-07T01:50:39;50.80;;;22.20;;
59093;SDS011;44880;52.814;18.270;2023-03-07T01:53:09;48.40;;;24.20;;
59093;SDS011;44880;52.814;18.270;2023-03-07T01:55:38;49.10;;;23.60;;
59093;SDS011;44880;52.814;18.270;2023-03-07T01:58:14;49.60;;;24.30;;
59093;SDS011;44880;52.814;18.270;2023-03-07T02:00:43;64.90;;;28.80;;
59093;SDS011;44880;52.814;18.270;2023-03-07T02:03:16;85.50;;;36.60;;
59093;SDS011;44880;52.814;18.270;2023-03-07T02:05:49;92.60;;;37.20;;
59093;SDS011;44880;52.814;18.270;2023-03-07T02:08:20;86.80;;;39.50;;
59093;SDS011;44880;52.814;18.270;2023-03-07T02:10:51;84.10;;;38.10;;
59093;SDS011;44880;52.814;18.270;2023-03-07T02:13:20;70.20;;;34.90;;
59093;SDS011;44880;52.814;18.270;2023-03-07T02:15:49;59.00;;;30.20;;
59093;SDS011;44880;52.814;18.270;2023-03-07T02:18:19;55.00;;;27.60;;
59093;SDS011;44880;52.814;18.270;2023-03-07T02:20:52;56.40;;;29.00;;
59093;SDS011;44880;52.814;18.270;2023-03-07T02:23:26;60.90;;;30.50;;
59093;SDS011;44880;52.814;18.270;2023-03-07T02:25:58;61.50;;;29.70;;
59093;SDS011;44880;52.814;18.270;2023-03-07T02:28:32;64.90;;;30.60;;
59093;SDS011;44880;52.814;18.270;2023-03-07T02:31:02;69.30;;;33.70;;
59093;SDS011;44880;52.814;18.270;2023-03-07T02:33:34;66.50;;;32.20;;
59093;SDS011;44880;52.814;18.270;2023-03-07T02:36:08;72.30;;;35.00;;
59093;SDS011;44880;52.814;18.270;2023-03-07T02:38:41;68.30;;;32.30;;
59093;SDS011;44880;52.814;18.270;2023-03-07T02:41:12;62.20;;;32.10;;
59093;SDS011;44880;52.814;18.270;2023-03-07T02:43:41;64.50;;;30.10;;
59093;SDS011;44880;52.814;18.270;2023-03-07T02:46:10;65.40;;;31.30;;
59093;SDS011;44880;52.814;18.270;2023-03-07T02:48:39;66.30;;;30.30;;
59093;SDS011;44880;52.814;18.270;2023-03-07T02:51:09;63.90;;;31.10;;
59093;SDS011;44880;52.814;18.270;2023-03-07T02:53:39;62.40;;;30.10;;
59093;SDS011;44880;52.814;18.270;2023-03-07T02:56:08;101.50;;;38.50;;
59093;SDS011;44880;52.814;18.270;2023-03-07T02:58:37;110.10;;;43.00;;
59093;SDS011;44880;52.814;18.270;2023-03-07T03:01:06;126.30;;;50.10;;
59093;SDS011;44880;52.814;18.270;2023-03-07T03:03:36;132.70;;;51.00;;
59093;SDS011;44880;52.814;18.270;2023-03-07T03:06:05;120.70;;;48.70;;
59093;SDS011;44880;52.814;18.270;2023-03-07T03:08:35;117.90;;;48.80;;
59093;SDS011;44880;52.814;18.270;2023-03-07T03:11:04;95.50;;;44.40;;
59093;SDS011;44880;52.814;18.270;2023-03-07T03:13:34;90.30;;;42.10;;
59093;SDS011;44880;52.814;18.270;2023-03-07T03:16:03;87.00;;;38.10;;
59093;SDS011;44880;52.814;18.270;2023-03-07T03:18:33;83.40;;;35.80;;
59093;SDS011;44880;52.814;18.270;2023-03-07T03:21:06;91.50;;;36.80;;
59093;SDS011;44880;52.814;18.270;2023-03-07T03:23:36;86.30;;;34.40;;
59093;SDS011;44880;52.814;18.270;2023-03-07T03:26:08;85.80;;;35.50;;
59093;SDS011;44880;52.814;18.270;2023-03-07T03:28:38;97.80;;;36.10;;
59093;SDS011;44880;52.814;18.270;2023-03-07T03:31:08;112.30;;;37.30;;
59093;SDS011;44880;52.814;18.270;2023-03-07T03:33:41;92.20;;;35.20;;
59093;SDS011;44880;52.814;18.270;2023-03-07T03:36:11;85.40;;;31.00;;
59093;SDS011;44880;52.814;18.270;2023-03-07T03:38:41;97.50;;;31.90;;
59093;SDS011;44880;52.814;18.270;2023-03-07T03:41:11;85.50;;;31.10;;
59093;SDS011;44880;52.814;18.270;2023-03-07T03:43:42;127.40;;;40.00;;
59093;SDS011;44880;52.814;18.270;2023-03-07T03:46:12;145.00;;;42.40;;
59093;SDS011;44880;52.814;18.270;2023-03-07T03:48:41;156.30;;;45.00;;
59093;SDS011;44880;52.814;18.270;2023-03-07T03:51:11;133.70;;;43.90;;
59093;SDS011;44880;52.814;18.270;2023-03-07T03:53:41;108.20;;;38.10;;
59093;SDS011;44880;52.814;18.270;2023-03-07T03:56:10;98.40;;;34.10;;
59093;SDS011;44880;52.814;18.270;2023-03-07T03:58:41;86.90;;;32.10;;
59093;SDS011;44880;52.814;18.270;2023-03-07T04:01:10;79.40;;;28.70;;
59093;SDS011;44880;52.814;18.270;2023-03-07T04:03:40;77.70;;;29.10;;
59093;SDS011;44880;52.814;18.270;2023-03-07T04:06:11;62.00;;;24.40;;
59093;SDS011;44880;52.814;18.270;2023-03-07T04:08:41;54.00;;;22.80;;
59093;SDS011;44880;52.814;18.270;2023-03-07T04:11:10;48.80;;;20.30;;
59093;SDS011;44880;52.814;18.270;2023-03-07T04:13:39;42.90;;;19.00;;
59093;SDS011;44880;52.814;18.270;2023-03-07T04:16:08;44.30;;;19.00;;
59093;SDS011;44880;52.814;18.270;2023-03-07T04:18:37;64.70;;;23.50;;
59093;SDS011;44880;52.814;18.270;2023-03-07T04:21:06;82.70;;;28.40;;
59093;SDS011;44880;52.814;18.270;2023-03-07T04:23:37;73.90;;;28.20;;
59093;SDS011;44880;52.814;18.270;2023-03-07T04:26:07;68.40;;;26.40;;
59093;SDS011;44880;52.814;18.270;2023-03-07T04:28:38;60.80;;;24.50;;
59093;SDS011;44880;52.814;18.270;2023-03-07T04:31:10;39.50;;;18.10;;
59093;SDS011;44880;52.814;18.270;2023-03-07T04:33:41;41.50;;;17.20;;
59093;SDS011;44880;52.814;18.270;2023-03-07T04:36:10;36.70;;;15.30;;
59093;SDS011;44880;52.814;18.270;2023-03-07T04:38:40;32.90;;;14.60;;
59093;SDS011;44880;52.814;18.270;2023-03-07T04:41:08;35.80;;;15.30;;
59093;SDS011;44880;52.814;18.270;2023-03-07T04:43:40;33.00;;;14.00;;
59093;SDS011;44880;52.814;18.270;2023-03-07T04:46:11;34.50;;;15.10;;
59093;SDS011;44880;52.814;18.270;2023-03-07T04:48:44;39.80;;;16.20;;
59093;SDS011;44880;52.814;18.270;2023-03-07T04:51:13;33.50;;;16.70;;
59093;SDS011;44880;52.814;18.270;2023-03-07T04:53:42;53.70;;;20.60;;
59093;SDS011;44880;52.814;18.270;2023-03-07T04:56:11;65.20;;;24.20;;
59093;SDS011;44880;52.814;18.270;2023-03-07T04:58:42;69.10;;;25.60;;
59093;SDS011;44880;52.814;18.270;2023-03-07T05:01:12;56.60;;;21.10;;
59093;SDS011;44880;52.814;18.270;2023-03-07T05:03:41;57.20;;;23.80;;
59093;SDS011;44880;52.814;18.270;2023-03-07T05:06:12;45.90;;;20.50;;
59093;SDS011;44880;52.814;18.270;2023-03-07T05:08:45;44.40;;;20.10;;
59093;SDS011;44880;52.814;18.270;2023-03-07T05:11:15;37.40;;;16.70;;
59093;SDS011;44880;52.814;18.270;2023-03-07T05:13:44;35.00;;;14.50;;
59093;SDS011;44880;52.814;18.270;2023-03-07T05:18:44;35.60;;;14.50;;
59093;SDS011;44880;52.814;18.270;2023-03-07T05:21:13;34.50;;;14.20;;
59093;SDS011;44880;52.814;18.270;2023-03-07T05:23:42;36.50;;;13.80;;
59093;SDS011;44880;52.814;18.270;2023-03-07T05:26:12;35.20;;;14.60;;
59093;SDS011;44880;52.814;18.270;2023-03-07T05:28:41;45.60;;;16.90;;
59093;SDS011;44880;52.814;18.270;2023-03-07T05:31:10;55.00;;;21.20;;
59093;SDS011;44880;52.814;18.270;2023-03-07T05:33:39;59.70;;;21.00;;
59093;SDS011;44880;52.814;18.270;2023-03-07T05:36:09;51.40;;;19.20;;
59093;SDS011;44880;52.814;18.270;2023-03-07T05:38:38;46.50;;;19.90;;
59093;SDS011;44880;52.814;18.270;2023-03-07T05:41:07;44.80;;;18.50;;
59093;SDS011;44880;52.814;18.270;2023-03-07T05:43:36;42.60;;;18.30;;
59093;SDS011;44880;52.814;18.270;2023-03-07T05:46:05;43.60;;;17.60;;
59093;SDS011;44880;52.814;18.270;2023-03-07T05:48:34;44.10;;;18.70;;
59093;SDS011;44880;52.814;18.270;2023-03-07T05:51:04;51.40;;;20.10;;
59093;SDS011;44880;52.814;18.270;2023-03-07T05:53:33;48.80;;;19.80;;
59093;SDS011;44880;52.814;18.270;2023-03-07T05:56:02;46.30;;;19.70;;
59093;SDS011;44880;52.814;18.270;2023-03-07T05:58:33;59.40;;;20.60;;
59093;SDS011;44880;52.814;18.270;2023-03-07T06:01:02;62.30;;;23.10;;
59093;SDS011;44880;52.814;18.270;2023-03-07T06:03:32;60.40;;;22.90;;
59093;SDS011;44880;52.814;18.270;2023-03-07T06:06:01;54.90;;;21.30;;
59093;SDS011;44880;52.814;18.270;2023-03-07T06:08:31;49.00;;;21.00;;
59093;SDS011;44880;52.814;18.270;2023-03-07T06:11:00;47.00;;;18.90;;
59093;SDS011;44880;52.814;18.270;2023-03-07T06:13:29;41.60;;;18.40;;
59093;SDS011;44880;52.814;18.270;2023-03-07T06:15:58;42.80;;;17.00;;
59093;SDS011;44880;52.814;18.270;2023-03-07T06:18:33;44.50;;;18.20;;
59093;SDS011;44880;52.814;18.270;2023-03-07T06:21:02;54.00;;;21.20;;
59093;SDS011;44880;52.814;18.270;2023-03-07T06:23:36;48.00;;;20.20;;
59093;SDS011;44880;52.814;18.270;2023-03-07T06:26:09;47.10;;;19.00;;
59093;SDS011;44880;52.814;18.270;2023-03-07T06:28:40;45.90;;;20.20;;
59093;SDS011;44880;52.814;18.270;2023-03-07T06:31:11;45.00;;;19.30;;
59093;SDS011;44880;52.814;18.270;2023-03-07T06:33:42;41.80;;;18.30;;
59093;SDS011;44880;52.814;18.270;2023-03-07T06:36:12;42.60;;;18.50;;
59093;SDS011;44880;52.814;18.270;2023-03-07T06:38:43;42.80;;;17.40;;
59093;SDS011;44880;52.814;18.270;2023-03-07T06:41:13;46.20;;;20.70;;
59093;SDS011;44880;52.814;18.270;2023-03-07T06:43:42;46.60;;;18.10;;
59093;SDS011;44880;52.814;18.270;2023-03-07T06:46:11;44.80;;;18.80;;
59093;SDS011;44880;52.814;18.270;2023-03-07T06:48:41;43.00;;;18.80;;
59093;SDS011;44880;52.814;18.270;2023-03-07T06:51:14;44.30;;;17.90;;
59093;SDS011;44880;52.814;18.270;2023-03-07T06:53:44;48.80;;;19.40;;
59093;SDS011;44880;52.814;18.270;2023-03-07T06:56:13;42.30;;;17.70;;
59093;SDS011;44880;52.814;18.270;2023-03-07T06:58:42;42.70;;;17.80;;
59093;SDS011;44880;52.814;18.270;2023-03-07T07:01:15;41.60;;;18.60;;
59093;SDS011;44880;52.814;18.270;2023-03-07T07:03:58;45.00;;;20.00;;
59093;SDS011;44880;52.814;18.270;2023-03-07T07:06:30;47.10;;;20.40;;
59093;SDS011;44880;52.814;18.270;2023-03-07T07:08:59;48.90;;;21.50;;
59093;SDS011;44880;52.814;18.270;2023-03-07T07:11:31;56.50;;;24.20;;
59093;SDS011;44880;52.814;18.270;2023-03-07T07:14:01;70.20;;;25.90;;
59093;SDS011;44880;52.814;18.270;2023-03-07T07:16:30;65.90;;;25.40;;
59093;SDS011;44880;52.814;18.270;2023-03-07T07:19:02;54.20;;;22.30;;
59093;SDS011;44880;52.814;18.270;2023-03-07T07:21:32;55.90;;;22.90;;
59093;SDS011;44880;52.814;18.270;2023-03-07T07:24:01;51.20;;;22.00;;
59093;SDS011;44880;52.814;18.270;2023-03-07T07:26:31;51.70;;;21.70;;
59093;SDS011;44880;52.814;18.270;2023-03-07T07:29:00;46.40;;;19.50;;
59093;SDS011;44880;52.814;18.270;2023-03-07T07:31:29;44.80;;;19.40;;
59093;SDS011;44880;52.814;18.270;2023-03-07T07:33:58;42.70;;;18.70;;
59093;SDS011;44880;52.814;18.270;2023-03-07T07:36:28;49.90;;;21.80;;
59093;SDS011;44880;52.814;18.270;2023-03-07T07:39:00;44.60;;;20.20;;
59093;SDS011;44880;52.814;18.270;2023-03-07T07:41:31;51.00;;;23.00;;
59093;SDS011;44880;52.814;18.270;2023-03-07T07:44:01;55.90;;;26.10;;
59093;SDS011;44880;52.814;18.270;2023-03-07T07:46:36;52.10;;;22.30;;
59093;SDS011;44880;52.814;18.270;2023-03-07T07:49:06;57.30;;;21.60;;
59093;SDS011;44880;52.814;18.270;2023-03-07T07:51:35;51.80;;;20.90;;
59093;SDS011;44880;52.814;18.270;2023-03-07T07:54:06;50.10;;;20.20;;
59093;SDS011;44880;52.814;18.270;2023-03-07T07:56:36;47.10;;;20.10;;
59093;SDS011;44880;52.814;18.270;2023-03-07T07:59:05;45.10;;;19.40;;
59093;SDS011;44880;52.814;18.270;2023-03-07T08:01:34;45.90;;;19.20;;
59093;SDS011;44880;52.814;18.270;2023-03-07T08:04:03;45.00;;;18.90;;
59093;SDS011;44880;52.814;18.270;2023-03-07T08:06:32;44.30;;;19.10;;
59093;SDS011;44880;52.814;18.270;2023-03-07T08:09:02;45.90;;;20.60;;
59093;SDS011;44880;52.814;18.270;2023-03-07T08:11:31;47.10;;;18.90;;
59093;SDS011;44880;52.814;18.270;2023-03-07T08:14:01;49.70;;;20.30;;
59093;SDS011;44880;52.814;18.270;2023-03-07T08:16:30;50.50;;;21.10;;
59093;SDS011;44880;52.814;18.270;2023-03-07T08:18:59;47.90;;;20.40;;
59093;SDS011;44880;52.814;18.270;2023-03-07T08:21:28;47.20;;;21.90;;
59093;SDS011;44880;52.814;18.270;2023-03-07T08:23:57;47.10;;;19.90;;
59093;SDS011;44880;52.814;18.270;2023-03-07T08:26:26;45.20;;;20.60;;
59093;SDS011;44880;52.814;18.270;2023-03-07T08:28:56;42.60;;;19.50;;
59093;SDS011;44880;52.814;18.270;2023-03-07T08:31:25;42.80;;;19.80;;
59093;SDS011;44880;52.814;18.270;2023-03-07T08:33:54;47.60;;;23.00;;
59093;SDS011;44880;52.814;18.270;2023-03-07T08:36:23;48.90;;;23.00;;
59093;SDS011;44880;52.814;18.270;2023-03-07T08:38:52;49.90;;;24.50;;
59093;SDS011;44880;52.814;18.270;2023-03-07T08:41:21;49.90;;;21.80;;
59093;SDS011;44880;52.814;18.270;2023-03-07T08:43:51;44.10;;;19.70;;
59093;SDS011;44880;52.814;18.270;2023-03-07T08:46:21;46.40;;;22.10;;
59093;SDS011;44880;52.814;18.270;2023-03-07T08:48:50;44.20;;;22.40;;
59093;SDS011;44880;52.814;18.270;2023-03-07T08:51:20;40.30;;;19.70;;
59093;SDS011;44880;52.814;18.270;2023-03-07T08:53:54;42.90;;;20.00;;
59093;SDS011;44880;52.814;18.270;2023-03-07T08:56:25;40.50;;;21.70;;
59093;SDS011;44880;52.814;18.270;2023-03-07T08:58:54;41.10;;;21.10;;
59093;SDS011;44880;52.814;18.270;2023-03-07T09:01:23;42.60;;;21.10;;
59093;SDS011;44880;52.814;18.270;2023-03-07T09:03:52;42.30;;;20.80;;
59093;SDS011;44880;52.814;18.270;2023-03-07T09:06:21;43.80;;;19.70;;
59093;SDS011;44880;52.814;18.270;2023-03-07T09:08:50;39.00;;;19.10;;
59093;SDS011;44880;52.814;18.270;2023-03-07T09:11:20;35.40;;;17.70;;
59093;SDS011;44880;52.814;18.270;2023-03-07T09:13:49;39.50;;;18.90;;
59093;SDS011;44880;52.814;18.270;2023-03-07T09:16:18;35.20;;;18.10;;
59093;SDS011;44880;52.814;18.270;2023-03-07T09:18:48;41.60;;;21.00;;
59093;SDS011;44880;52.814;18.270;2023-03-07T09:21:17;40.00;;;20.40;;
59093;SDS011;44880;52.814;18.270;2023-03-07T09:23:46;42.00;;;20.90;;
59093;SDS011;44880;52.814;18.270;2023-03-07T09:26:15;39.10;;;19.30;;
59093;SDS011;44880;52.814;18.270;2023-03-07T09:28:44;39.50;;;19.70;;
59093;SDS011;44880;52.814;18.270;2023-03-07T09:31:14;38.00;;;19.30;;
59093;SDS011;44880;52.814;18.270;2023-03-07T09:33:43;38.40;;;21.00;;
59093;SDS011;44880;52.814;18.270;2023-03-07T09:36:13;40.80;;;22.30;;
59093;SDS011;44880;52.814;18.270;2023-03-07T09:38:51;43.50;;;23.20;;
59093;SDS011;44880;52.814;18.270;2023-03-07T09:41:40;45.90;;;24.20;;
59093;SDS011;44880;52.814;18.270;2023-03-07T09:44:30;49.90;;;24.80;;
59093;SDS011;44880;52.814;18.270;2023-03-07T09:50:11;50.40;;;26.20;;
59093;SDS011;44880;52.814;18.270;2023-03-07T09:52:41;43.40;;;22.90;;
59093;SDS011;44880;52.814;18.270;2023-03-07T09:55:12;46.20;;;24.40;;
59093;SDS011;44880;52.814;18.270;2023-03-07T09:57:57;47.50;;;25.90;;
59093;SDS011;44880;52.814;18.270;2023-03-07T10:00:28;47.10;;;23.30;;
59093;SDS011;44880;52.814;18.270;2023-03-07T10:03:01;45.70;;;23.90;;
59093;SDS011;44880;52.814;18.270;2023-03-07T10:05:43;47.00;;;24.10;;
59093;SDS011;44880;52.814;18.270;2023-03-07T10:08:15;46.40;;;24.70;;
59093;SDS011;44880;52.814;18.270;2023-03-07T10:10:48;45.60;;;23.70;;
59093;SDS011;44880;52.814;18.270;2023-03-07T10:16:09;43.20;;;23.80;;
59093;SDS011;44880;52.814;18.270;2023-03-07T10:18:48;48.30;;;25.40;;
59093;SDS011;44880;52.814;18.270;2023-03-07T10:21:42;41.30;;;22.00;;
59093;SDS011;44880;52.814;18.270;2023-03-07T10:27:24;47.00;;;24.70;;
59093;SDS011;44880;52.814;18.270;2023-03-07T10:29:54;47.20;;;23.30;;
59093;SDS011;44880;52.814;18.270;2023-03-07T10:32:32;48.70;;;24.20;;
59093;SDS011;44880;52.814;18.270;2023-03-07T10:35:15;44.80;;;22.50;;
59093;SDS011;44880;52.814;18.270;2023-03-07T10:37:47;46.40;;;24.00;;
59093;SDS011;44880;52.814;18.270;2023-03-07T10:40:25;44.50;;;23.40;;
59093;SDS011;44880;52.814;18.270;2023-03-07T10:43:08;42.40;;;23.60;;
59093;SDS011;44880;52.814;18.270;2023-03-07T10:45:47;39.80;;;22.50;;
59093;SDS011;44880;52.814;18.270;2023-03-07T10:48:17;44.40;;;24.80;;
59093;SDS011;44880;52.814;18.270;2023-03-07T10:51:02;42.50;;;24.40;;
59093;SDS011;44880;52.814;18.270;2023-03-07T10:53:34;43.50;;;24.60;;
59093;SDS011;44880;52.814;18.270;2023-03-07T10:56:09;46.00;;;25.80;;
59093;SDS011;44880;52.814;18.270;2023-03-07T10:59:03;47.10;;;25.50;;
59093;SDS011;44880;52.814;18.270;2023-03-07T11:01:36;41.00;;;20.70;;
59093;SDS011;44880;52.814;18.270;2023-03-07T11:04:18;36.10;;;19.30;;
59093;SDS011;44880;52.814;18.270;2023-03-07T11:06:51;35.70;;;18.40;;
59093;SDS011;44880;52.814;18.270;2023-03-07T11:11:52;38.50;;;19.30;;
59093;SDS011;44880;52.814;18.270;2023-03-07T11:14:24;37.40;;;20.10;;
59093;SDS011;44880;52.814;18.270;2023-03-07T11:16:54;36.10;;;19.00;;
59093;SDS011;44880;52.814;18.270;2023-03-07T11:19:30;36.80;;;20.10;;
59093;SDS011;44880;52.814;18.270;2023-03-07T11:25:07;36.40;;;18.60;;
59093;SDS011;44880;52.814;18.270;2023-03-07T11:27:49;37.20;;;18.00;;
59093;SDS011;44880;52.814;18.270;2023-03-07T11:30:25;34.70;;;17.20;;
59093;SDS011;44880;52.814;18.270;2023-03-07T11:33:00;37.00;;;18.10;;
59093;SDS011;44880;52.814;18.270;2023-03-07T11:38:27;39.90;;;19.70;;
59093;SDS011;44880;52.814;18.270;2023-03-07T11:41:02;28.60;;;15.90;;
59093;SDS011;44880;52.814;18.270;2023-03-07T11:43:42;31.00;;;17.10;;
59093;SDS011;44880;52.814;18.270;2023-03-07T11:46:19;33.50;;;18.10;;
59093;SDS011;44880;52.814;18.270;2023-03-07T11:48:54;33.70;;;17.50;;
59093;SDS011;44880;52.814;18.270;2023-03-07T11:51:42;30.80;;;17.10;;
59093;SDS011;44880;52.814;18.270;2023-03-07T11:54:19;29.60;;;15.60;;
59093;SDS011;44880;52.814;18.270;2023-03-07T11:56:53;29.40;;;15.30;;
59093;SDS011;44880;52.814;18.270;2023-03-07T12:02:37;30.00;;;16.00;;
59093;SDS011;44880;52.814;18.270;2023-03-07T12:05:36;29.80;;;15.60;;
59093;SDS011;44880;52.814;18.270;2023-03-07T12:11:13;29.50;;;15.70;;
59093;SDS011;44880;52.814;18.270;2023-03-07T12:13:52;31.00;;;17.10;;
59093;SDS011;44880;52.814;18.270;2023-03-07T12:16:35;32.00;;;16.60;;
59093;SDS011;44880;52.814;18.270;2023-03-07T12:22:21;33.80;;;16.90;;
59093;SDS011;44880;52.814;18.270;2023-03-07T12:24:58;30.50;;;15.30;;
59093;SDS011;44880;52.814;18.270;2023-03-07T12:27:49;29.70;;;16.20;;
59093;SDS011;44880;52.814;18.270;2023-03-07T12:30:29;29.40;;;16.50;;
59093;SDS011;44880;52.814;18.270;2023-03-07T12:33:06;26.10;;;15.00;;
59093;SDS011;44880;52.814;18.270;2023-03-07T12:35:43;30.70;;;17.00;;
59093;SDS011;44880;52.814;18.270;2023-03-07T12:38:17;29.80;;;16.90;;
59093;SDS011;44880;52.814;18.270;2023-03-07T12:40:54;31.40;;;16.70;;
59093;SDS011;44880;52.814;18.270;2023-03-07T12:43:35;31.30;;;17.00;;
59093;SDS011;44880;52.814;18.270;2023-03-07T12:46:10;30.60;;;17.00;;
59093;SDS011;44880;52.814;18.270;2023-03-07T12:48:50;27.60;;;15.90;;
59093;SDS011;44880;52.814;18.270;2023-03-07T12:51:27;29.00;;;15.50;;
59093;SDS011;44880;52.814;18.270;2023-03-07T12:53:59;28.40;;;17.30;;
59093;SDS011;44880;52.814;18.270;2023-03-07T12:56:34;28.60;;;15.30;;
59093;SDS011;44880;52.814;18.270;2023-03-07T12:59:20;30.70;;;16.90;;
59093;SDS011;44880;52.814;18.270;2023-03-07T13:01:51;28.20;;;16.00;;
59093;SDS011;44880;52.814;18.270;2023-03-07T13:04:25;28.80;;;15.80;;
59093;SDS011;44880;52.814;18.270;2023-03-07T13:07:05;34.30;;;17.30;;
59093;SDS011;44880;52.814;18.270;2023-03-07T13:09:37;30.20;;;16.30;;
59093;SDS011;44880;52.814;18.270;2023-03-07T13:12:17;31.60;;;16.80;;
59093;SDS011;44880;52.814;18.270;2023-03-07T13:14:56;26.30;;;15.50;;
59093;SDS011;44880;52.814;18.270;2023-03-07T13:20:40;30.50;;;17.30;;
59093;SDS011;44880;52.814;18.270;2023-03-07T13:23:12;32.20;;;18.00;;
59093;SDS011;44880;52.814;18.270;2023-03-07T13:26:00;29.00;;;17.20;;
59093;SDS011;44880;52.814;18.270;2023-03-07T13:28:38;28.20;;;16.50;;
59093;SDS011;44880;52.814;18.270;2023-03-07T13:31:12;30.20;;;16.80;;
59093;SDS011;44880;52.814;18.270;2023-03-07T13:40:27;27.10;;;14.90;;
59093;SDS011;44880;52.814;18.270;2023-03-07T13:46:29;27.80;;;16.00;;
59093;SDS011;44880;52.814;18.270;2023-03-07T13:55:25;26.40;;;14.80;;
59093;SDS011;44880;52.814;18.270;2023-03-07T13:58:05;28.40;;;15.70;;
59093;SDS011;44880;52.814;18.270;2023-03-07T14:00:49;32.60;;;16.80;;
59093;SDS011;44880;52.814;18.270;2023-03-07T14:03:35;28.10;;;15.40;;
59093;SDS011;44880;52.814;18.270;2023-03-07T14:06:09;30.00;;;16.50;;
59093;SDS011;44880;52.814;18.270;2023-03-07T14:08:43;28.50;;;15.60;;
59093;SDS011;44880;52.814;18.270;2023-03-07T14:14:07;28.30;;;16.20;;
59093;SDS011;44880;52.814;18.270;2023-03-07T14:16:52;30.40;;;16.50;;
59093;SDS011;44880;52.814;18.270;2023-03-07T14:19:32;30.70;;;16.90;;
59093;SDS011;44880;52.814;18.270;2023-03-07T14:22:11;28.60;;;16.20;;
59093;SDS011;44880;52.814;18.270;2023-03-07T14:25:03;29.40;;;15.40;;
59093;SDS011;44880;52.814;18.270;2023-03-07T14:27:50;28.00;;;15.20;;
59093;SDS011;44880;52.814;18.270;2023-03-07T14:30:22;30.40;;;16.30;;
59093;SDS011;44880;52.814;18.270;2023-03-07T14:32:52;34.40;;;17.20;;
59093;SDS011;44880;52.814;18.270;2023-03-07T14:35:35;30.20;;;15.90;;
59093;SDS011;44880;52.814;18.270;2023-03-07T14:38:06;32.70;;;18.40;;
59093;SDS011;44880;52.814;18.270;2023-03-07T14:40:50;27.20;;;14.70;;
59093;SDS011;44880;52.814;18.270;2023-03-07T14:43:34;29.20;;;17.10;;
59093;SDS011;44880;52.814;18.270;2023-03-07T14:46:11;30.90;;;16.70;;
59093;SDS011;44880;52.814;18.270;2023-03-07T14:48:55;28.00;;;16.70;;
59093;SDS011;44880;52.814;18.270;2023-03-07T14:51:33;30.70;;;16.70;;
59093;SDS011;44880;52.814;18.270;2023-03-07T14:54:30;26.70;;;14.90;;
59093;SDS011;44880;52.814;18.270;2023-03-07T14:57:00;28.70;;;16.20;;
59093;SDS011;44880;52.814;18.270;2023-03-07T14:59:30;29.80;;;15.70;;
59093;SDS011;44880;52.814;18.270;2023-03-07T15:02:14;33.10;;;16.10;;
59093;SDS011;44880;52.814;18.270;2023-03-07T15:04:46;28.00;;;14.50;;
59093;SDS011;44880;52.814;18.270;2023-03-07T15:07:21;29.50;;;16.60;;
59093;SDS011;44880;52.814;18.270;2023-03-07T15:10:01;28.80;;;14.80;;
59093;SDS011;44880;52.814;18.270;2023-03-07T15:12:30;29.10;;;16.90;;
59093;SDS011;44880;52.814;18.270;2023-03-07T15:15:00;26.90;;;15.50;;
59093;SDS011;44880;52.814;18.270;2023-03-07T15:17:45;25.00;;;14.10;;
59093;SDS011;44880;52.814;18.270;2023-03-07T15:20:17;27.20;;;15.10;;
59093;SDS011;44880;52.814;18.270;2023-03-07T15:22:48;25.80;;;14.60;;
59093;SDS011;44880;52.814;18.270;2023-03-07T15:25:35;28.40;;;15.30;;
59093;SDS011;44880;52.814;18.270;2023-03-07T15:28:12;23.20;;;13.20;;
59093;SDS011;44880;52.814;18.270;2023-03-07T15:30:46;29.00;;;14.70;;
59093;SDS011;44880;52.814;18.270;2023-03-07T15:33:26;31.90;;;16.70;;